Time;durP1;ratioP1;P1;durP2;ratioP2;P2;SDS_P1;SDS_P2;PMS_P1;PMS_P2;Temp;Humidity;BMP_temperature;BMP_pressure;BME280_temperature;BME280_humidity;BME280_pressure;Samples;Min_cycle;Max_cycle;Signal;HPM_P1;HPM_P2
2022/04/27 00:01:24;;;;;;;6.80;6.10;;;11.70;99.90;;;;;;5071531;28;20699;-58
2022/04/27 00:03:53;;;;;;;7.30;6.60;;;11.60;99.90;;;;;;5071788;28;20732;-59
2022/04/27 00:06:19;;;;;;;7.60;6.80;;;11.50;99.90;;;;;;5072077;28;20664;-58
2022/04/27 00:08:46;;;;;;;6.63;5.93;;;11.50;99.90;;;;;;5072212;28;20205;-62
2022/04/27 00:11:13;;;;;;;7.60;6.80;;;11.40;99.90;;;;;;5072067;28;20241;-59
2022/04/27 00:13:40;;;;;;;8.07;6.83;;;11.40;99.90;;;;;;5072090;28;20225;-57
2022/04/27 00:16:07;;;;;;;7.43;6.73;;;11.40;99.90;;;;;;5072157;28;20266;-57
2022/04/27 00:18:34;;;;;;;8.90;7.20;;;11.40;99.90;;;;;;5072093;28;20577;-57
2022/04/27 00:21:02;;;;;;;7.80;7.00;;;11.40;99.90;;;;;;5071945;28;20237;-57
2022/04/27 00:23:30;;;;;;;7.80;7.00;;;11.40;99.90;;;;;;5071789;28;20282;-58
2022/04/27 00:25:57;;;;;;;8.27;7.23;;;11.40;99.90;;;;;;5071772;28;20672;-59
2022/04/27 00:28:23;;;;;;;7.90;7.10;;;11.40;99.90;;;;;;5072251;28;20278;-58
2022/04/27 00:30:50;;;;;;;7.43;6.60;;;11.40;99.90;;;;;;5072122;28;20203;-58
2022/04/27 00:33:17;;;;;;;8.00;7.20;;;11.50;99.90;;;;;;5071718;28;20201;-61
2022/04/27 00:35:44;;;;;;;8.63;7.73;;;11.50;99.90;;;;;;5071929;28;20211;-59
2022/04/27 00:38:12;;;;;;;9.03;7.30;;;11.50;99.90;;;;;;5072055;28;20246;-59
2022/04/27 00:40:38;;;;;;;8.77;7.77;;;11.30;99.90;;;;;;5071768;28;20697;-57
2022/04/27 00:43:05;;;;;;;9.77;8.73;;;11.30;99.90;;;;;;5071465;28;20606;-59
2022/04/27 00:45:32;;;;;;;9.83;8.83;;;11.30;99.90;;;;;;5071988;28;20208;-58
2022/04/27 00:47:58;;;;;;;10.17;9.23;;;11.30;99.90;;;;;;5071818;28;20262;-57
2022/04/27 00:50:25;;;;;;;11.07;9.67;;;11.40;99.90;;;;;;5071840;28;20205;-61
2022/04/27 00:52:53;;;;;;;11.73;9.87;;;11.50;99.90;;;;;;5071515;28;20208;-59
2022/04/27 00:55:21;;;;;;;10.80;9.70;;;11.50;99.90;;;;;;5071496;28;20723;-61
2022/04/27 00:57:48;;;;;;;10.37;8.77;;;11.60;99.90;;;;;;5071475;28;20213;-58
2022/04/27 01:00:15;;;;;;;9.80;8.80;;;11.60;99.90;;;;;;5071678;28;20222;-58
2022/04/27 01:02:42;;;;;;;11.47;9.07;;;11.60;99.90;;;;;;5071500;28;20291;-58
2022/04/27 01:05:11;;;;;;;9.97;8.93;;;11.80;99.90;;;;;;5071651;28;20254;-58
2022/04/27 01:07:38;;;;;;;10.07;9.07;;;11.80;99.90;;;;;;5071492;28;20299;-61
2022/04/27 01:10:08;;;;;;;11.33;9.30;;;11.80;99.90;;;;;;5071541;28;20687;-58
2022/04/27 01:12:36;;;;;;;10.73;9.57;;;11.90;99.90;;;;;;5071784;28;20235;-58
2022/04/27 01:15:04;;;;;;;10.47;9.37;;;11.80;99.90;;;;;;5075466;28;20236;-57
2022/04/27 01:17:31;;;;;;;10.50;9.50;;;11.70;99.90;;;;;;5075480;28;20241;-58
2022/04/27 01:19:58;;;;;;;9.97;8.90;;;11.80;99.90;;;;;;5075220;28;20224;-57
2022/04/27 01:22:28;;;;;;;10.50;9.40;;;11.90;99.90;;;;;;5075195;28;20632;-58
2022/04/27 01:24:56;;;;;;;10.87;9.77;;;11.90;99.90;;;;;;5075055;28;20233;-58
2022/04/27 01:27:23;;;;;;;11.47;10.27;;;11.90;99.90;;;;;;5075289;28;20209;-58
2022/04/27 01:29:50;;;;;;;11.53;10.33;;;11.90;99.90;;;;;;5075436;28;20208;-58
2022/04/27 01:32:16;;;;;;;12.53;10.17;;;11.90;99.90;;;;;;5074932;28;20209;-59
2022/04/27 01:34:43;;;;;;;11.73;10.30;;;11.90;99.90;;;;;;5074949;28;20224;-58
2022/04/27 01:39:56;;;;;;;11.83;10.63;;;11.90;99.90;;;;;;5075121;28;20232;-57
2022/04/27 01:42:22;;;;;;;12.13;10.77;;;11.90;99.90;;;;;;5074839;28;20201;-60
2022/04/27 01:44:49;;;;;;;14.20;10.87;;;11.90;99.90;;;;;;5075198;28;20225;-58
2022/04/27 01:47:16;;;;;;;12.50;11.17;;;12.00;99.90;;;;;;5075443;28;20205;-57
2022/04/27 01:49:42;;;;;;;13.47;11.00;;;12.10;99.90;;;;;;5075398;28;20628;-57
2022/04/27 01:54:54;;;;;;;13.33;11.60;;;12.10;99.90;;;;;;5110466;22;20247;-60
2022/04/27 01:57:21;;;;;;;13.33;12.03;;;12.20;99.90;;;;;;5094805;28;20615;-60
2022/04/27 01:59:48;;;;;;;14.80;12.70;;;12.20;99.90;;;;;;5095066;28;20706;-60
2022/04/27 02:02:14;;;;;;;13.83;12.37;;;12.20;99.90;;;;;;5095172;28;20208;-60
2022/04/27 02:04:42;;;;;;;16.10;13.00;;;12.10;99.90;;;;;;5094951;28;20273;-60
2022/04/27 02:07:09;;;;;;;14.40;12.90;;;12.00;99.90;;;;;;5094892;28;20240;-61
2022/04/27 02:09:36;;;;;;;14.87;13.27;;;12.00;99.90;;;;;;5094890;28;20234;-61
2022/04/27 02:12:05;;;;;;;17.83;14.77;;;12.00;99.90;;;;;;5094668;28;20204;-61
2022/04/27 02:14:32;;;;;;;18.57;15.63;;;12.00;99.90;;;;;;5094707;28;20220;-61
2022/04/27 02:16:58;;;;;;;16.30;14.53;;;11.80;99.90;;;;;;5094919;28;20212;-61
2022/04/27 02:19:25;;;;;;;16.57;14.60;;;11.80;99.90;;;;;;5094703;28;20212;-61
2022/04/27 02:21:52;;;;;;;15.97;13.50;;;11.90;99.90;;;;;;5094659;28;20224;-60
2022/04/27 02:24:19;;;;;;;17.87;14.80;;;12.00;99.90;;;;;;5093696;28;20224;-61
2022/04/27 02:26:45;;;;;;;17.13;15.00;;;12.00;99.90;;;;;;5094151;28;20249;-60
2022/04/27 02:29:15;;;;;;;16.30;13.97;;;12.10;99.90;;;;;;5094803;28;20234;-60
2022/04/27 02:31:42;;;;;;;16.37;14.50;;;12.10;99.90;;;;;;5094847;28;20227;-60
2022/04/27 02:34:09;;;;;;;17.40;14.80;;;12.20;99.90;;;;;;5094371;28;20281;-60
2022/04/27 02:36:36;;;;;;;15.27;13.67;;;12.20;99.90;;;;;;5094362;28;20286;-60
2022/04/27 02:39:03;;;;;;;17.30;13.47;;;12.30;99.90;;;;;;5094177;28;20204;-60
2022/04/27 02:41:30;;;;;;;15.23;13.50;;;12.30;99.90;;;;;;5094397;28;20227;-60
2022/04/27 02:43:56;;;;;;;15.43;13.60;;;12.20;99.90;;;;;;5094297;28;20220;-60
2022/04/27 02:46:24;;;;;;;16.07;14.10;;;12.20;99.90;;;;;;5094685;28;20207;-60
2022/04/27 02:54:25;;;;;;;18.47;16.43;;;12.20;99.90;;;;;;5078058;28;20242;-61
2022/04/27 02:56:53;;;;;;;24.10;19.90;;;12.20;99.90;;;;;;5094565;28;20208;-61
2022/04/27 02:59:20;;;;;;;24.73;18.83;;;12.20;99.90;;;;;;5094063;28;20231;-60
2022/04/27 03:01:48;;;;;;;19.47;16.67;;;12.20;99.90;;;;;;5094004;28;20224;-61
2022/04/27 03:04:15;;;;;;;19.10;16.07;;;12.20;99.90;;;;;;5093533;28;20224;-61
2022/04/27 03:06:42;;;;;;;23.17;17.97;;;12.20;99.90;;;;;;5093672;28;20204;-61
2022/04/27 03:09:08;;;;;;;20.13;17.27;;;12.20;99.90;;;;;;5093985;28;20212;-61
2022/04/27 03:11:35;;;;;;;20.50;17.07;;;12.20;99.90;;;;;;5093612;28;20204;-61
2022/04/27 03:14:02;;;;;;;19.87;17.30;;;12.20;99.90;;;;;;5093219;28;20726;-60
2022/04/27 03:16:28;;;;;;;19.87;17.10;;;12.20;99.90;;;;;;5093676;28;20288;-61
2022/04/27 03:18:56;;;;;;;21.23;17.23;;;12.20;99.90;;;;;;5093381;28;20208;-61
2022/04/27 03:21:23;;;;;;;20.10;16.73;;;12.10;99.90;;;;;;5093362;28;20228;-60
2022/04/27 03:23:50;;;;;;;21.30;18.00;;;12.10;99.90;;;;;;5093258;28;20262;-61
2022/04/27 03:26:16;;;;;;;24.03;18.60;;;12.20;99.90;;;;;;5093321;28;20219;-61
2022/04/27 03:28:43;;;;;;;22.73;17.73;;;12.20;99.90;;;;;;5093289;28;20253;-61
2022/04/27 03:31:10;;;;;;;22.43;18.70;;;12.20;99.90;;;;;;5093265;28;20199;-61
2022/04/27 03:33:37;;;;;;;23.80;19.07;;;12.20;99.90;;;;;;5092970;28;20204;-61
2022/04/27 03:36:06;;;;;;;22.23;18.73;;;12.20;99.90;;;;;;5093539;28;20619;-61
2022/04/27 03:38:33;;;;;;;22.23;18.17;;;12.20;99.90;;;;;;5093279;28;20208;-61
2022/04/27 03:40:59;;;;;;;22.43;18.47;;;12.20;99.90;;;;;;5092763;28;20703;-61
2022/04/27 03:43:26;;;;;;;24.30;20.33;;;12.20;99.90;;;;;;5092733;28;20204;-61
2022/04/27 03:45:53;;;;;;;21.33;17.73;;;12.10;99.90;;;;;;5092630;28;20208;-61
2022/04/27 03:48:19;;;;;;;23.40;18.13;;;12.10;99.90;;;;;;5093263;28;20212;-61
2022/04/27 03:50:46;;;;;;;25.40;18.37;;;12.10;99.90;;;;;;5093109;28;20215;-60
2022/04/27 03:53:14;;;;;;;28.60;21.57;;;12.10;99.90;;;;;;5093096;28;20209;-60
2022/04/27 03:55:41;;;;;;;25.77;19.80;;;12.00;99.90;;;;;;5092840;28;20235;-61
2022/04/27 03:58:08;;;;;;;24.57;18.63;;;12.00;99.90;;;;;;5093348;28;20227;-60
2022/04/27 04:00:35;;;;;;;25.20;19.23;;;11.90;99.90;;;;;;5093489;28;20224;-61
2022/04/27 04:03:02;;;;;;;23.70;17.97;;;11.70;99.90;;;;;;5093405;28;20204;-61
2022/04/27 04:05:29;;;;;;;24.57;19.27;;;11.60;99.90;;;;;;5093451;28;20224;-60
2022/04/27 04:07:56;;;;;;;24.20;18.97;;;11.50;99.90;;;;;;5093536;28;20204;-61
2022/04/27 04:10:24;;;;;;;28.17;21.67;;;11.50;99.90;;;;;;5092876;28;20211;-61
2022/04/27 04:12:51;;;;;;;29.50;22.27;;;11.50;99.90;;;;;;5092212;28;20214;-60
2022/04/27 04:15:17;;;;;;;24.23;18.87;;;11.50;99.90;;;;;;5092507;28;20586;-60
2022/04/27 04:17:45;;;;;;;25.70;19.87;;;11.50;99.90;;;;;;5092753;28;20211;-60
2022/04/27 04:20:13;;;;;;;25.00;19.10;;;11.60;99.90;;;;;;5092665;28;20434;-61
2022/04/27 04:22:39;;;;;;;25.83;19.73;;;11.60;99.90;;;;;;5092302;28;20276;-60
2022/04/27 04:30:37;;;;;;;26.63;20.80;;;11.80;99.90;;;;;;5092298;28;20211;-61
2022/04/27 04:33:04;;;;;;;27.07;20.50;;;11.80;99.90;;;;;;5092261;28;20200;-60
2022/04/27 04:35:31;;;;;;;30.60;21.50;;;11.80;99.90;;;;;;5092266;28;20224;-60
2022/04/27 04:37:57;;;;;;;29.73;21.47;;;11.90;99.90;;;;;;5092134;28;20211;-60
2022/04/27 04:40:24;;;;;;;27.33;20.80;;;12.00;99.90;;;;;;5092236;28;20255;-61
2022/04/27 04:42:52;;;;;;;26.60;19.73;;;12.00;99.90;;;;;;5091841;28;20211;-60
2022/04/27 04:45:19;;;;;;;29.87;20.67;;;12.10;99.90;;;;;;5091932;28;20224;-60
2022/04/27 04:47:46;;;;;;;27.87;19.73;;;12.10;99.90;;;;;;5093678;28;20211;-60
2022/04/27 04:50:13;;;;;;;25.63;19.27;;;12.10;99.90;;;;;;5098873;28;20253;-60
2022/04/27 04:52:40;;;;;;;27.27;20.80;;;12.20;99.90;;;;;;5098360;28;20235;-60
2022/04/27 04:55:07;;;;;;;27.20;20.47;;;12.20;99.90;;;;;;5098554;28;20242;-62
2022/04/27 04:57:34;;;;;;;25.20;19.40;;;12.20;99.90;;;;;;5098726;28;20211;-60
2022/04/27 05:00:03;;;;;;;26.00;18.03;;;12.30;99.90;;;;;;5098919;28;20200;-60
2022/04/27 05:02:31;;;;;;;25.07;19.27;;;12.30;99.90;;;;;;5098700;28;20239;-61
2022/04/27 05:04:58;;;;;;;27.90;19.10;;;12.30;99.90;;;;;;5098317;28;20695;-60
2022/04/27 05:07:24;;;;;;;24.13;18.67;;;12.20;99.90;;;;;;5098840;28;20231;-60
2022/04/27 05:09:51;;;;;;;24.97;18.67;;;12.20;99.90;;;;;;5098892;28;20207;-61
2022/04/27 05:12:18;;;;;;;23.60;17.90;;;12.40;99.90;;;;;;5098877;28;20200;-61
2022/04/27 05:14:45;;;;;;;23.33;17.60;;;12.40;99.90;;;;;;5098335;28;20220;-61
2022/04/27 05:17:13;;;;;;;26.10;17.63;;;12.50;99.90;;;;;;5098681;28;20212;-60
2022/04/27 05:19:39;;;;;;;24.10;17.97;;;12.50;99.90;;;;;;5098319;28;20729;-60
2022/04/27 05:22:06;;;;;;;20.73;15.87;;;12.50;99.90;;;;;;5098320;28;20239;-60
2022/04/27 05:24:33;;;;;;;20.77;16.80;;;12.50;99.90;;;;;;5098271;28;20243;-60
2022/04/27 05:27:00;;;;;;;23.07;18.83;;;12.40;99.90;;;;;;5098609;28;20212;-60
2022/04/27 05:32:12;;;;;;;20.97;16.03;;;12.50;99.90;;;;;;5098561;28;20215;-60
2022/04/27 05:34:40;;;;;;;23.27;16.37;;;12.60;99.90;;;;;;5098334;28;20296;-61
2022/04/27 05:37:07;;;;;;;23.73;16.83;;;12.70;99.90;;;;;;5098347;28;20204;-61
2022/04/27 05:39:34;;;;;;;20.93;16.80;;;12.80;99.90;;;;;;5098501;28;20200;-60
2022/04/27 05:42:01;;;;;;;22.37;17.00;;;12.90;99.90;;;;;;5098500;28;20555;-61
2022/04/27 05:44:28;;;;;;;20.53;16.60;;;12.90;99.90;;;;;;5098188;28;20255;-61
2022/04/27 05:46:56;;;;;;;21.63;17.43;;;13.00;99.90;;;;;;5098038;28;20210;-61
2022/04/27 05:49:23;;;;;;;22.17;18.07;;;13.10;99.90;;;;;;5098486;28;20212;-61
2022/04/27 05:51:51;;;;;;;24.63;18.70;;;12.90;99.90;;;;;;5098360;28;20196;-61
2022/04/27 05:54:18;;;;;;;23.20;17.30;;;12.70;99.90;;;;;;5097938;28;20236;-61
2022/04/27 05:56:45;;;;;;;24.30;18.50;;;12.70;99.90;;;;;;5098110;28;20204;-62
2022/04/27 05:59:13;;;;;;;22.57;18.20;;;12.70;99.90;;;;;;5096567;28;20204;-61
2022/04/27 06:01:40;;;;;;;24.37;17.70;;;12.80;99.90;;;;;;5094740;28;20227;-61
2022/04/27 06:04:07;;;;;;;25.17;17.60;;;13.00;99.90;;;;;;5094937;28;20221;-61
2022/04/27 06:06:33;;;;;;;23.17;18.47;;;13.10;99.90;;;;;;5095186;28;20291;-61
2022/04/27 06:09:02;;;;;;;21.23;17.47;;;13.30;99.90;;;;;;5095222;28;20277;-60
2022/04/27 06:11:29;;;;;;;23.10;18.47;;;13.30;99.90;;;;;;5094963;28;20208;-60
2022/04/27 06:13:56;;;;;;;21.40;17.63;;;13.30;99.90;;;;;;5094833;28;20234;-61
2022/04/27 06:16:24;;;;;;;21.23;17.33;;;13.10;99.90;;;;;;5094573;28;20586;-61
2022/04/27 06:18:51;;;;;;;22.40;17.57;;;12.70;99.90;;;;;;5095028;28;20245;-62
2022/04/27 06:21:18;;;;;;;23.20;18.77;;;12.40;99.90;;;;;;5094932;28;20224;-61
2022/04/27 06:23:45;;;;;;;29.60;21.63;;;12.10;99.90;;;;;;5094373;28;20255;-60
2022/04/27 06:26:14;;;;;;;20.60;16.57;;;12.20;99.90;;;;;;5094376;28;20208;-58
2022/04/27 06:28:41;;;;;;;22.53;17.33;;;12.30;99.90;;;;;;5094830;28;20208;-60
2022/04/27 06:31:08;;;;;;;21.43;15.90;;;12.30;99.90;;;;;;5094857;28;20232;-67
2022/04/27 06:33:35;;;;;;;20.33;16.13;;;12.00;99.90;;;;;;5094488;28;20204;-63
2022/04/27 06:36:01;;;;;;;22.50;16.93;;;11.90;99.90;;;;;;5094508;28;20200;-58
2022/04/27 06:38:28;;;;;;;20.23;15.77;;;12.00;99.90;;;;;;5094506;28;20326;-57
2022/04/27 06:40:55;;;;;;;20.43;15.93;;;12.00;99.90;;;;;;5094134;28;20200;-58
2022/04/27 06:43:23;;;;;;;17.10;14.43;;;12.20;99.90;;;;;;5093851;28;20754;-58
2022/04/27 06:45:50;;;;;;;17.30;14.23;;;12.20;99.90;;;;;;5094079;28;20318;-58
2022/04/27 06:48:16;;;;;;;17.70;13.93;;;12.60;99.90;;;;;;5094494;28;20208;-59
2022/04/27 06:50:43;;;;;;;19.07;14.57;;;12.90;99.90;;;;;;5093934;28;20665;-59
2022/04/27 06:53:10;;;;;;;17.20;13.60;;;13.00;99.90;;;;;;5093832;28;20196;-59
2022/04/27 06:55:38;;;;;;;15.80;12.83;;;13.20;99.90;;;;;;5093959;28;20236;-59
2022/04/27 06:58:05;;;;;;;16.67;14.30;;;13.60;99.90;;;;;;5094416;28;20212;-60
2022/04/27 07:00:33;;;;;;;16.57;13.30;;;14.00;99.90;;;;;;5094082;28;20201;-59
2022/04/27 07:03:00;;;;;;;14.00;11.67;;;14.20;99.90;;;;;;5093672;28;20659;-59
2022/04/27 07:05:27;;;;;;;14.10;12.17;;;14.40;99.90;;;;;;5093745;28;20224;-58
2022/04/27 07:07:54;;;;;;;18.20;11.73;;;14.70;99.90;;;;;;5093727;28;20379;-58
2022/04/27 07:10:21;;;;;;;16.37;11.67;;;15.10;99.90;;;;;;5093554;28;20736;-59
2022/04/27 07:12:48;;;;;;;13.23;11.40;;;15.30;99.90;;;;;;5093662;28;20207;-59
2022/04/27 07:15:15;;;;;;;14.03;11.63;;;15.50;99.90;;;;;;5093861;28;20256;-59
2022/04/27 07:17:43;;;;;;;15.93;11.37;;;15.60;99.90;;;;;;5093529;28;20204;-58
2022/04/27 07:20:11;;;;;;;10.63;9.13;;;16.00;99.90;;;;;;5093782;28;20325;-59
2022/04/27 07:22:38;;;;;;;11.03;9.20;;;16.70;99.90;;;;;;5093493;28;20722;-60
2022/04/27 07:25:05;;;;;;;9.40;8.27;;;17.20;99.90;;;;;;5093468;28;20228;-60
2022/04/27 07:27:32;;;;;;;9.43;7.33;;;17.40;99.90;;;;;;5093680;28;20224;-60
2022/04/27 07:29:59;;;;;;;5.60;5.00;;;17.60;99.90;;;;;;5093472;28;20204;-59
2022/04/27 07:32:26;;;;;;;7.47;5.80;;;17.60;99.90;;;;;;5093389;28;20287;-59
2022/04/27 07:34:54;;;;;;;5.13;4.03;;;17.40;99.90;;;;;;5093015;28;20231;-58
2022/04/27 07:37:20;;;;;;;4.23;3.83;;;17.10;99.90;;;;;;5093528;28;20207;-59
2022/04/27 07:39:47;;;;;;;5.00;3.47;;;16.80;99.90;;;;;;5093408;28;20211;-58
2022/04/27 07:42:15;;;;;;;4.20;3.80;;;16.60;99.90;;;;;;5093122;28;20220;-59
2022/04/27 07:44:42;;;;;;;4.30;3.83;;;16.40;99.90;;;;;;5093028;28;20221;-59
2022/04/27 07:47:09;;;;;;;4.23;3.73;;;16.30;99.90;;;;;;5093195;28;20676;-58
2022/04/27 07:49:36;;;;;;;3.97;3.53;;;16.20;99.90;;;;;;5092952;28;20258;-61
2022/04/27 07:52:05;;;;;;;4.00;3.60;;;16.10;99.90;;;;;;5093224;28;20197;-59
2022/04/27 07:54:31;;;;;;;7.17;6.00;;;16.10;99.90;;;;;;5093309;28;20239;-58
2022/04/27 07:56:58;;;;;;;4.20;3.80;;;16.30;99.90;;;;;;5092944;28;20667;-59
2022/04/27 07:59:25;;;;;;;3.97;3.53;;;16.50;99.90;;;;;;5092759;28;20598;-59
2022/04/27 08:01:52;;;;;;;4.80;4.30;;;16.50;99.90;;;;;;5092596;28;20357;-59
2022/04/27 08:04:19;;;;;;;4.90;4.40;;;16.50;99.90;;;;;;5092253;28;20224;-59
2022/04/27 08:06:45;;;;;;;5.27;3.80;;;16.60;99.90;;;;;;5092635;28;20591;-59
2022/04/27 08:09:13;;;;;;;4.90;4.40;;;16.80;99.90;;;;;;5092903;28;20269;-59
2022/04/27 08:11:41;;;;;;;7.00;4.27;;;17.20;99.90;;;;;;5089018;28;20210;-56
2022/04/27 08:14:08;;;;;;;6.70;4.63;;;17.50;99.90;;;;;;5092126;28;20231;-59
2022/04/27 08:16:35;;;;;;;6.40;5.07;;;17.90;99.70;;;;;;5092170;28;20212;-58
2022/04/27 08:19:02;;;;;;;6.43;5.25;;;18.10;99.50;;;;;;5092678;28;20215;-57
2022/04/27 08:21:28;;;;;;;4.78;4.18;;;18.20;99.40;;;;;;5092092;28;20257;-57
2022/04/27 08:23:55;;;;;;;5.83;5.17;;;18.30;99.10;;;;;;5091812;28;20711;-57
2022/04/27 08:26:23;;;;;;;7.72;6.05;;;18.30;98.90;;;;;;5093148;28;20296;-58
2022/04/27 08:28:50;;;;;;;7.60;6.10;;;18.10;99.00;;;;;;5093041;28;20237;-57
2022/04/27 08:31:18;;;;;;;7.27;5.80;;;17.80;99.40;;;;;;5092503;28;20269;-59
2022/04/27 08:33:45;;;;;;;6.53;5.57;;;17.50;99.90;;;;;;5092144;28;20761;-57
2022/04/27 08:36:12;;;;;;;6.37;5.77;;;17.40;99.90;;;;;;5091989;28;20257;-58
2022/04/27 08:38:39;;;;;;;7.43;5.75;;;17.40;99.90;;;;;;5092316;28;20212;-57
2022/04/27 08:41:06;;;;;;;6.32;5.72;;;17.60;99.90;;;;;;5092438;28;20204;-59
2022/04/27 08:43:34;;;;;;;5.70;5.13;;;17.70;99.50;;;;;;5091574;28;20227;-59
2022/04/27 08:46:03;;;;;;;4.93;4.43;;;17.70;99.30;;;;;;5092179;28;20208;-58
2022/04/27 08:48:31;;;;;;;5.30;4.63;;;17.50;99.50;;;;;;5091855;28;20232;-58
2022/04/27 08:50:58;;;;;;;6.97;4.80;;;17.50;99.90;;;;;;5092317;28;20211;-59
2022/04/27 08:53:25;;;;;;;6.37;4.97;;;17.50;99.60;;;;;;5091654;28;20208;-59
2022/04/27 08:55:53;;;;;;;4.57;4.13;;;17.50;99.70;;;;;;5092134;28;20592;-57
2022/04/27 08:58:22;;;;;;;5.53;4.45;;;17.40;99.50;;;;;;5091714;28;20204;-58
2022/04/27 09:00:50;;;;;;;4.73;4.00;;;17.40;99.30;;;;;;5091798;28;20668;-58
2022/04/27 09:03:25;;;;;;;4.70;4.20;;;17.30;99.20;;;;;;5091956;28;20227;-57
2022/04/27 09:05:53;;;;;;;4.30;3.90;;;17.40;99.30;;;;;;5092077;28;20207;-59
2022/04/27 09:08:20;;;;;;;5.10;4.30;;;17.70;98.80;;;;;;5087153;28;20714;-57
2022/04/27 09:10:47;;;;;;;6.80;4.25;;;17.80;98.60;;;;;;5088198;28;20197;-57
2022/04/27 09:13:14;;;;;;;4.47;4.07;;;17.50;98.90;;;;;;5091664;28;20210;-57
2022/04/27 09:15:41;;;;;;;8.75;7.40;;;17.20;98.80;;;;;;5092060;28;20224;-58
2022/04/27 09:21:04;;;;;;;6.68;4.55;;;16.90;99.70;;;;;;5090315;28;20207;-55
2022/04/27 09:23:37;;;;;;;4.47;4.07;;;17.20;99.10;;;;;;5091174;28;20246;-58
2022/04/27 09:26:15;;;;;;;5.18;3.80;;;17.40;99.50;;;;;;5090160;28;20219;-56
2022/04/27 09:28:47;;;;;;;5.75;4.20;;;17.70;98.80;;;;;;5091766;28;20667;-60
2022/04/27 09:31:26;;;;;;;4.45;3.70;;;18.20;98.30;;;;;;5092226;28;20212;-57
2022/04/27 09:34:00;;;;;;;4.18;3.78;;;18.70;96.90;;;;;;5092066;28;20224;-58
2022/04/27 09:36:27;;;;;;;4.45;3.85;;;19.00;96.70;;;;;;5095531;28;20683;-62
2022/04/27 09:38:56;;;;;;;7.93;3.95;;;19.30;96.20;;;;;;5095796;28;20200;-57
2022/04/27 09:41:41;;;;;;;4.45;3.70;;;19.50;95.50;;;;;;5095522;28;20687;-55
2022/04/27 09:44:09;;;;;;;5.18;3.53;;;19.60;95.30;;;;;;5095517;28;20285;-56
2022/04/27 09:46:41;;;;;;;4.22;3.83;;;19.90;94.90;;;;;;5095561;28;20258;-55
2022/04/27 09:49:14;;;;;;;4.47;3.72;;;20.10;94.70;;;;;;5094863;28;20682;-57
2022/04/27 09:51:48;;;;;;;3.92;3.58;;;20.20;94.40;;;;;;5095595;28;20455;-58
2022/04/27 09:54:19;;;;;;;4.30;3.78;;;20.50;94.00;;;;;;5094766;28;20317;-58
2022/04/27 09:56:51;;;;;;;4.43;3.97;;;20.60;93.20;;;;;;5094741;28;20212;-56
2022/04/27 09:59:21;;;;;;;4.07;3.53;;;20.20;93.40;;;;;;5077141;28;20283;-59
2022/04/27 10:01:49;;;;;;;4.95;3.55;;;19.90;93.90;;;;;;5094579;28;20235;-56
2022/04/27 10:04:21;;;;;;;4.10;3.70;;;19.60;93.90;;;;;;5093877;28;20240;-57
2022/04/27 10:06:49;;;;;;;4.03;3.72;;;19.20;94.40;;;;;;5094875;28;20231;-58
2022/04/27 10:09:16;;;;;;;3.97;3.58;;;18.90;94.80;;;;;;5094722;28;20636;-58
2022/04/27 10:11:44;;;;;;;4.00;3.60;;;18.50;95.00;;;;;;5094953;28;20208;-56
2022/04/27 10:14:11;;;;;;;4.47;3.80;;;18.40;95.50;;;;;;5094445;28;20638;-57
2022/04/27 10:16:39;;;;;;;3.88;3.47;;;18.50;95.70;;;;;;5094718;28;20239;-57
2022/04/27 10:19:10;;;;;;;3.97;3.58;;;18.70;95.40;;;;;;5094887;28;20207;-55
2022/04/27 10:21:43;;;;;;;4.40;3.40;;;18.90;95.30;;;;;;5094312;28;20215;-55
2022/04/27 10:24:11;;;;;;;4.57;3.85;;;19.10;95.20;;;;;;5094503;28;20238;-55
2022/04/27 10:26:39;;;;;;;3.92;3.63;;;19.60;94.40;;;;;;5094383;28;20655;-58
2022/04/27 10:29:08;;;;;;;3.80;3.28;;;20.10;94.10;;;;;;5094647;28;20208;-58
2022/04/27 10:32:02;;;;;;;3.75;3.33;;;20.50;93.30;;;;;;5094499;28;20235;-58
2022/04/27 10:34:29;;;;;;;4.00;3.60;;;20.70;92.90;;;;;;5089033;28;20218;-59
2022/04/27 10:36:58;;;;;;;3.30;3.00;;;20.80;92.00;;;;;;5093063;28;20277;-58
2022/04/27 10:39:26;;;;;;;3.55;3.25;;;20.70;91.70;;;;;;5094334;28;20204;-59
2022/04/27 10:42:18;;;;;;;3.65;3.25;;;20.60;91.90;;;;;;5094392;28;20214;-57
2022/04/27 10:45:13;;;;;;;3.28;2.97;;;20.30;92.50;;;;;;5093740;28;20277;-56
2022/04/27 10:47:43;;;;;;;3.50;3.20;;;20.30;92.80;;;;;;5075740;28;20208;-56
2022/04/27 10:50:29;;;;;;;3.47;3.17;;;20.40;92.30;;;;;;5094122;28;20290;-56
2022/04/27 10:53:14;;;;;;;3.70;3.40;;;20.20;92.80;;;;;;5093739;28;20204;-57
2022/04/27 10:55:51;;;;;;;3.35;2.97;;;20.10;92.40;;;;;;5093936;28;20267;-57
2022/04/27 10:58:19;;;;;;;4.55;3.20;;;19.70;92.60;;;;;;5094023;28;20295;-57
2022/04/27 11:01:26;;;;;;;3.50;2.70;;;19.40;93.00;;;;;;5093939;28;20203;-57
2022/04/27 11:04:11;;;;;;;3.58;3.28;;;18.80;93.20;;;;;;5093484;28;20228;-57
2022/04/27 11:07:22;;;;;;;3.95;3.00;;;18.30;93.90;;;;;;5094053;28;20207;-57
2022/04/27 11:10:15;;;;;;;3.95;3.13;;;18.10;94.50;;;;;;5093542;28;20204;-56
2022/04/27 11:12:46;;;;;;;3.75;3.15;;;18.10;94.80;;;;;;5093745;28;20287;-57
2022/04/27 11:15:16;;;;;;;4.05;3.22;;;18.00;94.90;;;;;;5093231;28;20604;-55
2022/04/27 11:17:43;;;;;;;3.50;3.20;;;18.10;95.20;;;;;;5093514;28;20200;-55
2022/04/27 11:20:26;;;;;;;3.90;3.50;;;18.40;95.10;;;;;;5093578;28;20208;-56
2022/04/27 11:22:53;;;;;;;3.22;2.92;;;19.00;94.20;;;;;;5093649;28;20239;-55
2022/04/27 11:25:26;;;;;;;3.80;3.40;;;19.40;93.10;;;;;;5093267;28;20224;-55
2022/04/27 11:27:52;;;;;;;3.47;3.17;;;19.70;92.70;;;;;;5093630;28;20204;-55
2022/04/27 11:30:21;;;;;;;3.20;2.90;;;20.10;92.60;;;;;;5093514;28;20203;-54
2022/04/27 11:32:48;;;;;;;3.50;3.20;;;20.30;91.90;;;;;;5094016;28;20210;-56
2022/04/27 11:35:15;;;;;;;4.22;2.88;;;20.30;91.40;;;;;;5093476;28;20228;-55
2022/04/27 11:37:42;;;;;;;3.92;2.85;;;20.20;90.90;;;;;;5093875;28;20208;-55
2022/04/27 11:40:14;;;;;;;4.75;4.30;;;20.00;91.20;;;;;;5093699;28;20211;-55
2022/04/27 11:42:46;;;;;;;3.40;3.10;;;19.90;91.50;;;;;;5093199;28;20215;-56
2022/04/27 11:45:14;;;;;;;3.28;2.97;;;19.80;91.40;;;;;;5093127;28;20315;-56
2022/04/27 11:47:41;;;;;;;3.58;3.28;;;19.80;92.10;;;;;;5093781;28;20204;-55
2022/04/27 11:50:08;;;;;;;3.50;3.20;;;19.70;91.40;;;;;;5093588;28;20208;-55
2022/04/27 11:52:37;;;;;;;3.35;3.05;;;19.30;91.80;;;;;;5093639;28;20211;-56
2022/04/27 11:55:09;;;;;;;3.10;2.80;;;19.20;92.10;;;;;;5093449;28;20228;-54
2022/04/27 11:57:36;;;;;;;3.35;3.05;;;19.20;92.40;;;;;;5092865;28;20238;-55
2022/04/27 12:00:05;;;;;;;4.00;3.60;;;19.00;92.80;;;;;;5093983;28;20204;-56
2022/04/27 12:02:34;;;;;;;3.72;3.13;;;19.00;92.80;;;;;;5093429;28;20204;-55
2022/04/27 12:05:01;;;;;;;4.03;3.17;;;19.00;92.70;;;;;;5093311;28;20232;-54
2022/04/27 12:07:35;;;;;;;4.10;3.65;;;19.20;92.90;;;;;;5093495;28;20682;-55
2022/04/27 12:10:03;;;;;;;3.50;3.20;;;19.20;92.90;;;;;;5093299;28;20227;-57
2022/04/27 12:12:32;;;;;;;3.67;3.22;;;19.20;92.90;;;;;;5093612;28;20215;-55
2022/04/27 12:15:07;;;;;;;5.10;3.30;;;19.20;92.90;;;;;;5092689;28;20578;-55
2022/04/27 12:17:48;;;;;;;3.50;3.20;;;19.30;92.30;;;;;;5093139;28;20212;-55
2022/04/27 12:20:29;;;;;;;4.63;3.20;;;19.40;92.30;;;;;;5092792;28;20204;-55
2022/04/27 12:22:58;;;;;;;3.70;3.40;;;19.50;92.20;;;;;;5092934;28;20287;-55
2022/04/27 12:25:33;;;;;;;3.88;3.30;;;19.60;92.00;;;;;;5092215;28;20681;-55
2022/04/27 12:28:00;;;;;;;3.60;3.30;;;19.70;91.80;;;;;;5092531;28;20211;-55
2022/04/27 12:30:29;;;;;;;3.50;3.20;;;19.80;91.40;;;;;;5092335;28;20680;-56
2022/04/27 12:32:55;;;;;;;3.55;3.25;;;19.50;91.60;;;;;;5092355;28;20212;-55
2022/04/27 12:38:11;;;;;;;3.50;3.20;;;19.40;91.90;;;;;;5092719;28;20198;-55
2022/04/27 12:40:38;;;;;;;5.93;5.38;;;19.30;91.80;;;;;;5092437;28;20208;-55
2022/04/27 12:43:07;;;;;;;4.93;3.47;;;19.40;92.00;;;;;;5092576;28;20208;-55
2022/04/27 12:45:36;;;;;;;5.95;3.70;;;19.50;91.90;;;;;;5092204;28;20686;-56
2022/04/27 12:48:03;;;;;;;3.85;3.30;;;19.60;91.80;;;;;;5092549;28;20261;-55
2022/04/27 12:50:30;;;;;;;3.72;3.42;;;19.90;91.50;;;;;;5092556;28;20204;-55
2022/04/27 12:53:08;;;;;;;4.65;3.50;;;20.30;91.30;;;;;;5092363;28;20204;-55
2022/04/27 12:55:35;;;;;;;3.25;2.90;;;20.60;90.40;;;;;;5092042;28;20318;-55
2022/04/27 12:58:02;;;;;;;3.38;3.08;;;21.00;90.00;;;;;;5092247;28;20290;-54
2022/04/27 13:00:40;;;;;;;4.20;3.22;;;21.20;88.80;;;;;;5092130;28;20291;-55
2022/04/27 13:03:08;;;;;;;4.25;3.28;;;21.60;88.00;;;;;;5092362;28;20284;-56
2022/04/27 13:05:35;;;;;;;3.90;3.30;;;22.00;85.40;;;;;;5091722;28;20284;-56
2022/04/27 13:08:02;;;;;;;3.70;3.40;;;22.10;86.10;;;;;;5091929;28;20208;-56
2022/04/27 13:13:16;;;;;;;4.32;3.67;;;22.10;84.90;;;;;;5096248;28;20195;-55